Google Maps JavaScript API Example
Pilot Flight Report # 93825 Submitted by : AST204 on 2020-03-29
Date: 2020-03-29Aircraft: Boeing 787-8 Dreamliner
Flight No.: AST1897Distance (Nm): 4693.36
Departure: KSFO - San Francisco IntlDestination: RJBB - Kansai International
 TimeFuelWeightSpeeds  
Out (Taxi)1937Z217698 lbs517723 lbs Flight RulesIFR
Off (Takeoff)1950Z 514932 lbs173 ktsFlight Level40000
On (Landing)0512Z 388989 lbs117 ktsVSTD-265 ft/min
In (Ramp)0519Z87894 lbs387902 lbs ZFW300001 lbs
Flight9.40  -  9:22125945 lbs  Pax0
Block9.70  -  9:42129804 lbs  Cargo0
Departure WeatherKSFO 311936Z 25623KT 49SM SKC 18/7 A2996
Destination WeatherRJBB 310719Z 08704KT 30SM FEW030 FEW255 23/17 A3012
Flight Comments